TimeEDT,TemperatureF,Dew PointF,Humidity,Sea Level PressureIn,VisibilityMPH,Wind Direction,Wind SpeedMPH,Gust SpeedMPH,PrecipitationIn,Events,Conditions,WindDirDegrees,DateUTC
12:10 AM,33.8,17.6,52,30.05,10.0,West,8.1,-,N/A,,Scattered Clouds,280,2013-03-15 04:10:00
12:30 AM,33.8,17.6,52,300.80,10.0,WNW,9.2,16.1,N/A,,Scattered Clouds,290,2013-03-15 04:30:00
12:50 AM,33.8,17.6,52,30.05,10.0,WNW,9.2,-,N/A,,Scattered Clouds,300,2013-03-15 04:50:00
1:10 AM,33.8,17.6,52,30.05,10.0,WNW,10.4,16.1,N/A,,Scattered Clouds,300,2013-03-15 05:10:00
1:30 AM,33.8,15.8,48,30.05,10.0,WNW,10.4,19.6,N/A,,Scattered Clouds,300,2013-03-15 05:30:00
1:50 AM,33.8,17.6,52,3.00,10.0,WNW,11.5,18.4,N/A,,Scattered Clouds,290,2013-03-15 05:50:00
2:10 AM,33.8,17.6,52,3.00,10.0,WNW,9.2,16.1,N/A,,Scattered Clouds,300,2013-03-15 06:10:00
2:30 AM,33.8,17.6,52,300.90,10.0,WNW,9.2,-,N/A,,Scattered Clouds,300,2013-03-15 06:30:00
3:10 AM,32.0,19.4,60,30.05,10.0,WNW,4.6,-,N/A,,Scattered Clouds,290,2013-03-15 07:10:00
3:30 AM,30.2,17.6,60,30.04,10.0,WNW,3.5,-,N/A,,Scattered Clouds,300,2013-03-15 07:30:00
3:50 AM,-9999,-9999,N/A,30.04,10.0,West,5.8,-,N/A,,Scattered Clouds,280,2013-03-15 07:50:00
4:10 AM,-9999,-9999,N/A,30.04,10.0,WSW,3.5,-,N/A,,Scattered Clouds,240,2013-03-15 08:10:00
4:30 AM,-9999,-9999,N/A,30.03,10.0,West,5.8,-,N/A,,Scattered Clouds,260,2013-03-15 08:30:00
4:50 AM,-9999,-9999,N/A,30.02,10.0,West,11.5,-,N/A,,Scattered Clouds,280,2013-03-15 08:50:00
5:10 AM,30.2,19.4,64,30.03,10.0,West,9.2,-,N/A,,Scattered Clouds,280,2013-03-15 09:10:00
5:30 AM,30.2,19.4,64,30.03,10.0,West,5.8,-,N/A,,Scattered Clouds,270,2013-03-15 09:30:00
5:45 AM,30.2,19.4,64,30.03,10.0,West,6.9,-,N/A,,Scattered Clouds,270,2013-03-15 09:45:00
6:10 AM,30.2,19.4,64,30.03,10.0,SW,5.8,-,N/A,,Scattered Clouds,220,2013-03-15 10:10:00
6:30 AM,-9999,-9999,N/A,30.03,10.0,West,5.8,-,N/A,,Scattered Clouds,260,2013-03-15 10:30:00
6:50 AM,-9999,-9999,N/A,30.03,10.0,WSW,4.6,-,N/A,,Scattered Clouds,240,2013-03-15 10:50:00
7:10 AM,28.4,21.2,74,30.03,10.0,WSW,4.6,-,N/A,,Scattered Clouds,250,2013-03-15 11:10:00
7:30 AM,30.2,21.2,69,30.03,10.0,WSW,6.9,-,N/A,,Scattered Clouds,250,2013-03-15 11:30:00
7:50 AM,30.2,21.2,69,30.02,10.0,WSW,4.6,-,N/A,,Clear,240,2013-03-15 11:50:00
8:10 AM,30.2,21.2,69,30.02,10.0,WSW,4.6,-,N/A,,Clear,240,2013-03-15 12:10:00
8:30 AM,30.2,21.2,69,30.02,10.0,WSW,5.8,-,N/A,,Scattered Clouds,240,2013-03-15 12:30:00
8:50 AM,32.0,21.2,64,30.01,10.0,SW,4.6,-,N/A,,Clear,230,2013-03-15 12:50:00
9:10 AM,33.8,23.0,65,30.00,10.0,SW,4.6,-,N/A,,Clear,220,2013-03-15 13:10:00
9:30 AM,33.8,24.8,70,30.00,10.0,WSW,8.1,-,N/A,,Clear,240,2013-03-15 13:30:00
9:50 AM,35.6,26.6,70,29.99,10.0,SW,9.2,-,N/A,,Clear,220,2013-03-15 13:50:00
10:10 AM,37.4,26.6,65,29.98,10.0,SW,11.5,17.3,N/A,,Clear,230,2013-03-15 14:10:00
10:30 AM,39.2,19.4,45,29.97,10.0,SW,15.0,18.4,N/A,,Unknown,230,2013-03-15 14:30:00
10:50 AM,39.2,19.4,45,29.97,10.0,SW,13.8,-,N/A,,Overcast,230,2013-03-15 14:50:00
11:10 AM,39.2,19.4,45,29.96,10.0,WSW,16.1,19.6,N/A,,Overcast,240,2013-03-15 15:10:00
11:30 AM,41.0,19.4,42,29.94,10.0,SW,10.4,-,N/A,,Overcast,220,2013-03-15 15:30:00
11:50 AM,41.0,19.4,42,29.93,10.0,SW,11.5,18.4,N/A,,Overcast,230,2013-03-15 15:50:00
12:10 PM,42.8,19.4,39,29.92,10.0,SW,15.0,19.6,N/A,,Overcast,220,2013-03-15 16:10:00
12:30 PM,42.8,19.4,39,29.92,10.0,WSW,12.7,19.6,N/A,,Mostly Cloudy,240,2013-03-15 16:30:00
12:50 PM,44.6,17.6,34,29.91,10.0,SW,15.0,24.2,N/A,,Scattered Clouds,230,2013-03-15 16:50:00
1:10 PM,46.4,19.4,34,29.90,10.0,SW,17.3,23.0,N/A,,Clear,230,2013-03-15 17:10:00
1:30 PM,46.4,17.6,32,29.89,10.0,West,16.1,21.9,N/A,,Clear,260,2013-03-15 17:30:00
1:50 PM,48.2,19.4,32,29.88,10.0,SW,17.3,21.9,N/A,,Scattered Clouds,220,2013-03-15 17:50:00
2:10 PM,48.2,21.2,34,29.87,10.0,SW,11.5,17.3,N/A,,Mostly Cloudy,230,2013-03-15 18:10:00
2:30 PM,48.2,19.4,32,29.85,10.0,SW,12.7,21.9,N/A,,Scattered Clouds,230,2013-03-15 18:30:00
2:50 PM,48.2,19.4,32,29.84,10.0,WSW,10.4,25.3,N/A,,Scattered Clouds,250,2013-03-15 18:50:00
3:10 PM,51.8,19.4,28,29.82,10.0,WSW,13.8,-,N/A,,Unknown,240,2013-03-15 19:10:00
3:30 PM,51.8,19.4,28,29.81,10.0,SW,15.0,23.0,N/A,,Clear,220,2013-03-15 19:30:00
3:50 PM,51.8,21.2,30,29.80,10.0,SW,13.8,24.2,N/A,,Scattered Clouds,230,2013-03-15 19:50:00
4:10 PM,51.8,23.0,33,29.80,10.0,SW,13.8,20.7,N/A,,Scattered Clouds,230,2013-03-15 20:10:00
4:30 PM,51.8,21.2,30,29.79,10.0,SW,10.4,19.6,N/A,,Scattered Clouds,220,2013-03-15 20:30:00
4:50 PM,51.8,24.8,35,29.79,10.0,SW,13.8,18.4,N/A,,Mostly Cloudy,230,2013-03-15 20:50:00
5:10 PM,51.8,24.8,35,29.78,10.0,WSW,11.5,17.3,N/A,,Scattered Clouds,250,2013-03-15 21:10:00
5:30 PM,51.8,26.6,38,29.77,10.0,WSW,10.4,-,N/A,,Scattered Clouds,250,2013-03-15 21:30:00
5:50 PM,51.8,26.6,38,29.77,10.0,WSW,8.1,-,N/A,,Scattered Clouds,250,2013-03-15 21:50:00
6:10 PM,51.8,26.6,38,29.77,10.0,West,4.6,-,N/A,,Scattered Clouds,260,2013-03-15 22:10:00
6:30 PM,51.8,26.6,38,29.77,10.0,West,3.5,-,N/A,,Scattered Clouds,270,2013-03-15 22:30:00
6:50 PM,51.8,28.4,41,29.78,10.0,West,9.2,-,N/A,,Mostly Cloudy,260,2013-03-15 22:50:00
7:10 PM,51.8,28.4,41,29.78,10.0,West,10.4,-,N/A,,Unknown,270,2013-03-15 23:10:00
7:30 PM,51.8,30.2,44,29.78,10.0,West,8.1,-,N/A,,Unknown,270,2013-03-15 23:30:00
7:50 PM,51.8,30.2,44,29.78,10.0,West,10.4,-,N/A,,Scattered Clouds,270,2013-03-15 23:50:00
8:10 PM,51.8,30.2,44,29.78,10.0,West,9.2,16.1,N/A,,Mostly Cloudy,280,2013-03-16 00:10:00
8:30 PM,51.8,30.2,44,29.79,10.0,Calm,Calm,-,N/A,,Unknown,0,2013-03-16 00:30:00
8:50 PM,51.8,30.2,44,29.80,10.0,Calm,Calm,-,N/A,,Clear,0,2013-03-16 00:50:00
9:10 PM,50.0,30.2,47,29.81,10.0,Calm,Calm,-,N/A,,Clear,0,2013-03-16 01:10:00
9:30 PM,50.0,30.2,47,29.81,10.0,Calm,Calm,-,N/A,,Scattered Clouds,0,2013-03-16 01:30:00
9:50 PM,48.2,30.2,50,29.81,10.0,Calm,Calm,-,N/A,,Scattered Clouds,0,2013-03-16 01:50:00
10:10 PM,48.2,32.0,54,29.81,10.0,Calm,Calm,-,N/A,,Scattered Clouds,0,2013-03-16 02:10:00
10:50 PM,44.6,32.0,61,29.81,10.0,Calm,Calm,-,N/A,,Clear,0,2013-03-16 02:50:00
11:10 PM,46.4,32.0,57,29.81,10.0,Calm,Calm,-,N/A,,Scattered Clouds,0,2013-03-16 03:10:00
11:30 PM,46.4,32.0,57,29.80,10.0,Calm,Calm,-,N/A,,Scattered Clouds,0,2013-03-16 03:30:00
11:50 PM,46.4,32.0,57,29.80,10.0,Calm,Calm,-,N/A,,Scattered Clouds,0,2013-03-16 03:50:00